Time;durP1;ratioP1;P1;durP2;ratioP2;P2;SDS_P1;SDS_P2;PMS_P1;PMS_P2;Temp;Humidity;BMP_temperature;BMP_pressure;BME280_temperature;BME280_humidity;BME280_pressure;Samples;Min_cycle;Max_cycle;Signal;HPM_P1;HPM_P2
2023/10/27 00:00:55;;;;;;;62.53;8.82;;;;;;;11.58;73.07;97611.22;4993366;28;20046;-83
2023/10/27 00:03:21;;;;;;;76.38;8.52;;;;;;;11.58;73.07;97611.22;4993181;28;20213;-83
2023/10/27 00:05:48;;;;;;;58.97;7.82;;;;;;;11.57;72.81;97611.38;4993350;28;20042;-81
2023/10/27 00:08:15;;;;;;;53.25;7.70;;;;;;;11.55;72.76;97610.72;4992631;28;20101;-85
2023/10/27 00:10:42;;;;;;;91.95;8.15;;;;;;;11.53;72.74;97610.00;4993309;28;20112;-83
2023/10/27 00:13:08;;;;;;;70.20;7.93;;;;;;;11.51;72.71;97609.34;4992764;28;20174;-81
2023/10/27 00:15:35;;;;;;;47.20;8.02;;;;;;;11.48;72.78;97607.84;4993615;28;20050;-84
2023/10/27 00:18:02;;;;;;;47.55;6.88;;;;;;;11.44;72.87;97599.38;4993661;28;20047;-83
2023/10/27 00:20:28;;;;;;;42.20;7.22;;;;;;;11.43;72.66;97599.50;4991568;28;20217;-79
2023/10/27 00:22:55;;;;;;;72.55;7.88;;;;;;;11.40;72.98;97597.19;4992780;28;20050;-82
2023/10/27 00:25:21;;;;;;;97.07;8.98;;;;;;;11.37;73.07;97590.41;4992945;28;20599;-80
2023/10/27 00:27:48;;;;;;;113.45;10.63;;;;;;;11.36;73.34;97586.09;4992675;28;20146;-83
2023/10/27 00:30:15;;;;;;;97.90;11.27;;;;;;;11.35;73.23;97584.44;4992509;28;20077;-83
2023/10/27 00:32:42;;;;;;;87.85;9.20;;;;;;;11.33;73.37;97579.31;4992588;28;20046;-83
2023/10/27 00:35:08;;;;;;;99.65;9.50;;;;;;;11.32;73.59;97582.94;4992724;28;20054;-82
2023/10/27 00:37:37;;;;;;;97.93;9.75;;;;;;;11.32;73.63;97577.69;4992254;28;20074;-83
2023/10/27 00:40:04;;;;;;;102.03;9.93;;;;;;;11.32;73.72;97577.69;4992275;28;20078;-81
2023/10/27 00:42:31;;;;;;;99.15;9.27;;;;;;;11.32;73.65;97577.69;4992641;28;20054;-82
2023/10/27 00:44:57;;;;;;;82.35;9.15;;;;;;;11.32;73.66;97576.84;4992555;28;20145;-87
2023/10/27 00:47:24;;;;;;;71.32;9.40;;;;;;;11.32;73.70;97580.31;4992470;28;20042;-83
2023/10/27 00:49:52;;;;;;;46.20;8.82;;;;;;;11.33;73.68;97574.06;4992236;28;20133;-85
2023/10/27 00:52:20;;;;;;;125.38;10.90;;;;;;;11.33;73.82;97579.31;4992277;28;20470;-80
2023/10/27 00:54:48;;;;;;;99.63;10.30;;;;;;;11.32;73.83;97582.94;4992200;28;20132;-83
2023/10/27 00:57:16;;;;;;;70.15;9.57;;;;;;;11.33;73.71;97583.78;4992348;28;20566;-88
2023/10/27 00:59:42;;;;;;;121.82;10.52;;;;;;;11.33;73.66;97574.06;4992002;28;20078;-83
2023/10/27 01:02:09;;;;;;;99.90;10.20;;;;;;;11.33;73.70;97573.25;4992089;28;20062;-82
2023/10/27 01:04:37;;;;;;;77.82;9.98;;;;;;;11.32;73.77;97564.50;4992032;28;20054;-80
2023/10/27 01:07:04;;;;;;;84.85;10.43;;;;;;;11.33;73.85;97571.41;4991956;28;20082;-83
2023/10/27 01:09:30;;;;;;;57.50;9.50;;;;;;;11.33;73.98;97573.25;4991711;28;20061;-83
2023/10/27 01:11:57;;;;;;;80.45;11.25;;;;;;;11.33;73.93;97571.41;4992306;28;20069;-82
2023/10/27 01:14:23;;;;;;;67.13;9.77;;;;;;;11.34;73.96;97570.44;4992071;28;20046;-82
2023/10/27 01:16:50;;;;;;;57.95;10.57;;;;;;;11.35;74.11;97571.28;4990591;28;20081;-83
2023/10/27 01:19:17;;;;;;;40.40;10.95;;;;;;;11.37;74.09;97576.41;4991739;28;20057;-82
2023/10/27 01:21:43;;;;;;;80.72;12.32;;;;;;;11.37;73.85;97571.97;4991857;28;20410;-83
2023/10/27 01:24:10;;;;;;;81.05;11.20;;;;;;;11.38;74.07;97563.09;4991798;28;20050;-84
2023/10/27 01:26:36;;;;;;;45.53;11.57;;;;;;;11.40;74.08;97563.75;4991783;28;20487;-81
2023/10/27 01:29:03;;;;;;;25.95;11.55;;;;;;;11.41;74.11;97561.97;4991632;28;20133;-81
2023/10/27 01:31:30;;;;;;;44.15;11.75;;;;;;;11.44;74.09;97556.41;4991646;28;20144;-89
2023/10/27 01:33:56;;;;;;;44.15;11.10;;;;;;;11.45;73.99;97560.69;4991809;28;20046;-83
2023/10/27 01:36:23;;;;;;;49.53;10.95;;;;;;;11.45;73.96;97565.97;4991360;28;20054;-82
2023/10/27 01:38:49;;;;;;;34.35;9.98;;;;;;;11.46;73.96;97563.19;4991545;28;20054;-82
2023/10/27 01:41:17;;;;;;;81.72;10.98;;;;;;;11.46;73.89;97560.56;4990536;28;20065;-82
2023/10/27 01:43:43;;;;;;;62.97;10.10;;;;;;;11.47;73.81;97556.09;4991674;28;20078;-79
2023/10/27 01:46:10;;;;;;;85.10;10.40;;;;;;;11.47;73.71;97561.38;4991572;28;20154;-80
2023/10/27 01:48:36;;;;;;;80.05;11.30;;;;;;;11.46;73.86;97550.00;4991507;28;20050;-83
2023/10/27 01:51:03;;;;;;;64.10;11.75;;;;;;;11.46;73.90;97546.53;4991342;28;20145;-84
2023/10/27 01:53:31;;;;;;;53.75;11.95;;;;;;;11.46;73.93;97550.00;4991660;28;20054;-83
2023/10/27 01:55:57;;;;;;;50.00;12.10;;;;;;;11.47;74.00;97545.56;4991579;28;20078;-83
2023/10/27 01:58:27;;;;;;;62.75;12.32;;;;;;;11.46;73.80;97543.91;4991208;28;20145;-81
2023/10/27 02:00:54;;;;;;;71.25;12.68;;;;;;;11.47;73.90;97537.66;4991566;28;20047;-82
2023/10/27 02:03:20;;;;;;;104.90;14.43;;;;;;;11.47;73.86;97537.66;4990165;28;20046;-85
2023/10/27 02:05:47;;;;;;;66.80;13.55;;;;;;;11.47;73.99;97535.84;4991445;28;20129;-82
2023/10/27 02:08:14;;;;;;;62.20;12.88;;;;;;;11.48;74.02;97534.06;4991642;28;20061;-81
2023/10/27 02:10:40;;;;;;;62.55;13.27;;;;;;;11.48;74.17;97531.44;4991883;28;20454;-82
2023/10/27 02:13:07;;;;;;;125.78;15.60;;;;;;;11.49;73.85;97537.50;4991364;28;20054;-86
2023/10/27 02:15:33;;;;;;;100.55;13.88;;;;;;;11.50;73.94;97532.09;4991118;28;20053;-80
2023/10/27 02:18:00;;;;;;;92.53;14.82;;;;;;;11.51;73.83;97532.94;4991191;28;20089;-83
2023/10/27 02:20:29;;;;;;;77.40;15.25;;;;;;;11.50;74.11;97532.09;4991068;28;20050;-82
2023/10/27 02:22:56;;;;;;;58.97;13.98;;;;;;;11.52;74.12;97530.16;4991461;28;20085;-82
2023/10/27 02:25:22;;;;;;;103.03;15.23;;;;;;;11.52;74.10;97529.31;4991537;28;20068;-82
2023/10/27 02:27:49;;;;;;;49.65;13.57;;;;;;;11.51;74.11;97539.00;4991264;28;20069;-79
2023/10/27 02:30:16;;;;;;;58.70;14.27;;;;;;;11.52;73.88;97532.78;4990958;28;20528;-78
2023/10/27 02:32:42;;;;;;;89.93;14.80;;;;;;;11.53;74.22;97531.81;4994117;28;20050;-83
2023/10/27 02:35:08;;;;;;;94.07;17.15;;;;;;;11.54;74.34;97532.63;4995016;28;20065;-83
2023/10/27 02:37:35;;;;;;;68.57;15.60;;;;;;;11.55;74.27;97524.56;4994808;28;20082;-80
2023/10/27 02:40:02;;;;;;;75.20;16.33;;;;;;;11.56;74.38;97520.13;4994539;28;20050;-81
2023/10/27 02:42:28;;;;;;;54.70;16.50;;;;;;;11.56;74.18;97531.50;4994549;28;20530;-87
2023/10/27 02:44:56;;;;;;;52.85;17.30;;;;;;;11.57;74.20;97529.69;4994733;28;20141;-83
2023/10/27 02:47:22;;;;;;;59.25;18.27;;;;;;;11.58;74.20;97523.44;4994603;28;20125;-84
2023/10/27 02:49:49;;;;;;;59.10;16.27;;;;;;;11.59;74.05;97525.94;4994564;28;20069;-83
2023/10/27 02:52:15;;;;;;;55.15;18.98;;;;;;;11.59;74.14;97533.84;4994478;28;20142;-81
2023/10/27 02:54:42;;;;;;;31.80;17.77;;;;;;;11.58;74.15;97529.53;4994597;28;20084;-80
2023/10/27 02:57:08;;;;;;;48.78;17.80;;;;;;;11.59;74.30;97527.75;4994232;28;20120;-83
2023/10/27 02:59:35;;;;;;;52.38;18.42;;;;;;;11.59;74.07;97533.84;4994237;28;20058;-85
2023/10/27 03:02:02;;;;;;;47.03;19.90;;;;;;;11.60;74.38;97538.13;4994275;28;20058;-78
2023/10/27 03:04:28;;;;;;;47.65;19.80;;;;;;;11.60;74.34;97538.13;4994233;28;20109;-82
2023/10/27 03:06:55;;;;;;;40.08;19.63;;;;;;;11.63;74.38;97538.81;4994599;28;20058;-83
2023/10/27 03:09:21;;;;;;;43.33;21.15;;;;;;;11.64;74.36;97532.56;4994028;28;20109;-81
2023/10/27 03:11:48;;;;;;;46.28;20.40;;;;;;;11.66;74.48;97530.63;4994065;28;20062;-83
2023/10/27 03:14:15;;;;;;;38.67;19.92;;;;;;;11.67;74.27;97533.06;4994003;28;20050;-83
2023/10/27 03:16:43;;;;;;;35.83;20.65;;;;;;;11.69;74.28;97530.28;4992634;28;20450;-83
2023/10/27 03:19:09;;;;;;;40.22;21.13;;;;;;;11.70;74.15;97531.97;4994074;28;20108;-83
2023/10/27 03:21:36;;;;;;;37.78;22.02;;;;;;;11.71;74.14;97534.44;4994049;28;20085;-89
2023/10/27 03:24:03;;;;;;;38.15;21.65;;;;;;;11.70;74.05;97524.88;4994125;28;20060;-83
2023/10/27 03:26:29;;;;;;;35.55;21.98;;;;;;;11.71;74.06;97525.72;4993809;28;20060;-81
2023/10/27 03:28:56;;;;;;;39.50;23.58;;;;;;;11.71;73.93;97526.53;4994078;28;20141;-84
2023/10/27 03:31:23;;;;;;;44.08;24.05;;;;;;;11.71;74.03;97525.72;4993953;28;20145;-84
2023/10/27 03:33:49;;;;;;;40.30;23.48;;;;;;;11.71;73.91;97523.88;4993720;28;20062;-82
2023/10/27 03:36:16;;;;;;;38.80;22.25;;;;;;;11.71;73.78;97520.44;4993644;28;20085;-80
2023/10/27 03:38:42;;;;;;;42.35;23.35;;;;;;;11.71;73.89;97517.81;4993403;28;20056;-83
2023/10/27 03:41:08;;;;;;;38.38;23.77;;;;;;;11.69;74.04;97510.06;4993583;28;20150;-82
2023/10/27 03:43:35;;;;;;;41.92;23.30;;;;;;;11.69;74.13;97510.06;4993194;28;20145;-82
2023/10/27 03:46:02;;;;;;;40.45;22.95;;;;;;;11.69;74.15;97504.78;4993600;28;20050;-84
2023/10/27 03:48:29;;;;;;;42.80;24.83;;;;;;;11.69;74.26;97510.06;4993490;28;20054;-83
2023/10/27 03:50:57;;;;;;;44.78;25.35;;;;;;;11.70;74.13;97509.06;4993571;28;20116;-81
2023/10/27 03:53:24;;;;;;;40.70;24.58;;;;;;;11.70;74.09;97503.00;4993416;28;20046;-83
2023/10/27 03:55:51;;;;;;;43.15;25.35;;;;;;;11.71;74.06;97502.00;4993193;28;20137;-82
2023/10/27 03:58:18;;;;;;;43.42;24.15;;;;;;;11.69;74.08;97494.25;4993208;28;20065;-84
2023/10/27 04:00:52;;;;;;;43.42;25.00;;;;;;;11.71;74.12;97496.72;4993495;28;20082;-82
2023/10/27 04:03:19;;;;;;;43.30;25.45;;;;;;;11.70;74.04;97490.63;4993492;28;20046;-84
2023/10/27 04:05:46;;;;;;;37.42;23.15;;;;;;;11.70;73.93;97490.63;4992984;28;20480;-83
2023/10/27 04:08:12;;;;;;;42.28;23.98;;;;;;;11.69;74.06;97491.59;4993160;28;20050;-82
2023/10/27 04:10:39;;;;;;;39.45;23.17;;;;;;;11.69;74.00;97493.41;4992829;28;20574;-82
2023/10/27 04:13:07;;;;;;;43.45;24.35;;;;;;;11.68;74.02;97486.47;4993001;28;20070;-81
2023/10/27 04:15:34;;;;;;;43.78;25.00;;;;;;;11.68;74.15;97489.13;4992877;28;20550;-86
2023/10/27 04:18:01;;;;;;;41.72;23.67;;;;;;;11.69;74.15;97485.50;4992806;28;20105;-83
2023/10/27 04:20:29;;;;;;;41.60;24.25;;;;;;;11.69;74.12;97486.34;4992824;28;20463;-81
2023/10/27 04:22:56;;;;;;;40.90;23.70;;;;;;;11.70;74.11;97490.63;4992763;28;20081;-85
2023/10/27 04:25:23;;;;;;;45.55;24.65;;;;;;;11.70;74.25;97482.72;4992762;28;20136;-82
2023/10/27 04:27:50;;;;;;;42.28;24.83;;;;;;;11.71;74.20;97494.09;4992802;28;20096;-83
2023/10/27 04:30:17;;;;;;;45.92;24.85;;;;;;;11.71;74.20;97491.47;4992641;28;20046;-79
2023/10/27 04:32:45;;;;;;;41.58;23.67;;;;;;;11.72;74.27;97495.75;4992505;28;20578;-84
2023/10/27 04:35:13;;;;;;;42.80;25.33;;;;;;;11.72;74.21;97487.84;4992500;28;20190;-82
2023/10/27 04:37:40;;;;;;;39.97;23.75;;;;;;;11.74;74.28;97493.81;4992320;28;20108;-88
2023/10/27 04:40:07;;;;;;;42.85;24.67;;;;;;;11.74;74.33;97493.81;4992509;28;20046;-80
2023/10/27 04:42:34;;;;;;;42.03;23.50;;;;;;;11.76;74.11;97491.81;4992568;28;20057;-81
2023/10/27 04:45:02;;;;;;;42.03;24.08;;;;;;;11.76;74.05;97493.63;4992602;28;20082;-82
2023/10/27 04:47:28;;;;;;;38.90;22.80;;;;;;;11.75;74.09;97484.91;4992243;28;20097;-82
2023/10/27 04:49:55;;;;;;;38.47;22.92;;;;;;;11.75;74.04;97481.44;4992131;28;20108;-82
2023/10/27 04:52:24;;;;;;;40.22;23.00;;;;;;;11.74;73.86;97485.91;4991827;28;20069;-79
2023/10/27 04:54:51;;;;;;;39.58;23.88;;;;;;;11.73;73.90;97495.59;4991270;28;20502;-80
2023/10/27 04:57:17;;;;;;;38.53;22.73;;;;;;;11.73;73.98;97492.97;4992270;28;20054;-81
2023/10/27 04:59:44;;;;;;;37.92;22.85;;;;;;;11.73;73.96;97486.84;4991908;28;20510;-83
2023/10/27 05:02:10;;;;;;;36.70;21.65;;;;;;;11.73;74.21;97492.97;4991892;28;20100;-85
2023/10/27 05:04:37;;;;;;;39.60;22.63;;;;;;;11.73;74.02;97489.47;4992208;28;20134;-86
2023/10/27 05:07:05;;;;;;;39.65;23.30;;;;;;;11.72;74.02;97480.78;4991760;28;20053;-80
2023/10/27 05:09:32;;;;;;;41.20;23.67;;;;;;;11.72;74.04;97486.03;4992015;28;20137;-84
2023/10/27 05:11:59;;;;;;;39.35;22.85;;;;;;;11.72;73.89;97486.03;4991935;28;20050;-83
2023/10/27 05:14:25;;;;;;;38.30;22.50;;;;;;;11.72;73.93;97487.84;4990524;28;20070;-81
2023/10/27 05:16:52;;;;;;;39.58;22.85;;;;;;;11.72;74.21;97485.19;4991958;28;20149;-81
2023/10/27 05:19:18;;;;;;;40.20;23.30;;;;;;;11.71;74.00;97480.91;4991689;28;20791;-80
2023/10/27 05:21:45;;;;;;;41.92;24.00;;;;;;;11.71;73.98;97473.00;4991869;28;20054;-83
2023/10/27 05:24:11;;;;;;;39.75;24.17;;;;;;;11.70;73.95;97474.81;4991775;28;20495;-81
2023/10/27 05:26:38;;;;;;;45.08;24.42;;;;;;;11.70;74.16;97471.38;4991556;28;20494;-81
2023/10/27 05:29:05;;;;;;;39.28;22.90;;;;;;;11.72;74.17;97472.03;4991756;28;20139;-80
2023/10/27 05:33:57;;;;;;;40.03;24.27;;;;;;;11.72;74.08;97469.38;5009520;23;20443;-75
2023/10/27 05:36:24;;;;;;;39.33;22.45;;;;;;;11.72;74.25;97462.31;4992479;28;20077;-75
2023/10/27 05:38:51;;;;;;;38.00;21.55;;;;;;;11.75;74.12;97470.88;4990949;28;20090;-73
2023/10/27 05:41:18;;;;;;;42.10;23.83;;;;;;;11.75;74.11;97473.53;4992196;28;20698;-76
2023/10/27 05:43:44;;;;;;;43.83;24.92;;;;;;;11.76;74.20;97468.09;4992115;28;20057;-81
2023/10/27 05:46:11;;;;;;;40.30;23.55;;;;;;;11.76;74.02;97468.09;4991967;28;20419;-75
2023/10/27 05:48:37;;;;;;;43.33;24.10;;;;;;;11.76;74.01;97469.91;4991705;28;20491;-75
2023/10/27 05:51:04;;;;;;;43.10;24.67;;;;;;;11.76;73.96;97472.53;4992104;28;20050;-76
2023/10/27 05:53:30;;;;;;;40.63;24.33;;;;;;;11.76;74.09;97468.09;4992177;28;20096;-72
2023/10/27 05:55:57;;;;;;;40.58;23.17;;;;;;;11.76;74.01;97470.75;4991793;28;20046;-76
2023/10/27 05:58:23;;;;;;;41.65;23.80;;;;;;;11.78;74.05;97467.97;4991792;28;20133;-77
2023/10/27 06:00:50;;;;;;;45.47;25.48;;;;;;;11.78;74.48;97481.13;4991905;28;20407;-81
2023/10/27 06:03:16;;;;;;;39.72;23.27;;;;;;;11.78;73.82;97476.69;4992124;28;20388;-75
2023/10/27 06:05:43;;;;;;;41.13;23.25;;;;;;;11.78;74.08;97475.88;4991994;28;20052;-75
2023/10/27 06:08:09;;;;;;;43.25;24.17;;;;;;;11.76;74.01;97473.38;4995731;28;20142;-74
2023/10/27 06:10:37;;;;;;;41.75;23.00;;;;;;;11.78;73.81;97476.69;4994543;28;20054;-81
2023/10/27 06:13:04;;;;;;;39.60;23.83;;;;;;;11.78;73.99;97476.69;4995766;28;20062;-74
2023/10/27 06:15:31;;;;;;;38.03;21.50;;;;;;;11.78;73.82;97479.31;4995584;28;20062;-76
2023/10/27 06:17:57;;;;;;;38.75;22.52;;;;;;;11.78;73.88;97478.50;4995842;28;20047;-74
2023/10/27 06:20:23;;;;;;;42.83;23.63;;;;;;;11.78;73.72;97478.50;4995844;28;20046;-74
2023/10/27 06:22:50;;;;;;;38.42;22.40;;;;;;;11.78;74.01;97476.69;4995563;28;20818;-74
2023/10/27 06:25:18;;;;;;;40.88;23.48;;;;;;;11.79;73.78;97477.50;4994363;28;20389;-76
2023/10/27 06:27:44;;;;;;;40.17;22.15;;;;;;;11.78;74.11;97475.88;4995217;28;20062;-74
2023/10/27 06:30:11;;;;;;;37.17;20.85;;;;;;;11.79;73.88;97473.09;4995144;28;20072;-81
2023/10/27 06:32:38;;;;;;;40.15;21.55;;;;;;;11.79;73.68;97477.50;4995224;28;20117;-74
2023/10/27 06:35:04;;;;;;;35.83;21.85;;;;;;;11.79;73.82;97475.72;4995634;28;20412;-73
2023/10/27 06:37:31;;;;;;;42.17;22.67;;;;;;;11.79;73.86;97480.16;4995201;28;20133;-75
2023/10/27 06:40:01;;;;;;;38.17;21.55;;;;;;;11.78;74.08;97476.69;4995069;28;20526;-75
2023/10/27 06:42:36;;;;;;;41.67;22.35;;;;;;;11.76;73.97;97476.00;4995557;28;20054;-75
2023/10/27 06:45:03;;;;;;;39.42;22.95;;;;;;;11.79;74.08;97482.78;4995276;28;20108;-71
2023/10/27 06:47:30;;;;;;;41.08;21.80;;;;;;;11.79;74.09;97477.50;4995299;28;20046;-75
2023/10/27 06:49:57;;;;;;;37.53;21.80;;;;;;;11.79;74.04;97475.72;4995146;28;20066;-75
2023/10/27 06:52:23;;;;;;;37.42;21.60;;;;;;;11.79;73.75;97478.34;4995173;28;20050;-76
2023/10/27 06:54:50;;;;;;;38.17;21.70;;;;;;;11.76;74.04;97476.00;4994778;28;20046;-75
2023/10/27 06:57:16;;;;;;;41.28;22.15;;;;;;;11.78;74.08;97474.03;4994606;28;20057;-76
2023/10/27 06:59:43;;;;;;;37.67;21.65;;;;;;;11.76;74.00;97468.09;4994586;28;20407;-80
2023/10/27 07:02:09;;;;;;;39.05;21.60;;;;;;;11.76;74.05;97473.38;4994402;28;20137;-73
2023/10/27 07:04:36;;;;;;;39.58;21.52;;;;;;;11.76;73.94;97470.75;4994371;28;20078;-75
2023/10/27 07:07:09;;;;;;;36.70;21.38;;;;;;;11.74;74.26;97472.72;4993162;28;20537;-81
2023/10/27 07:09:53;;;;;;;36.15;20.77;;;;;;;11.76;74.19;97464.63;4992778;28;20058;-75
2023/10/27 07:12:19;;;;;;;34.63;20.00;;;;;;;11.76;74.21;97476.00;4994332;28;20096;-74
2023/10/27 07:14:46;;;;;;;36.72;21.42;;;;;;;11.78;74.27;97481.13;4993339;28;20085;-73
2023/10/27 07:17:12;;;;;;;41.55;22.92;;;;;;;11.78;74.17;97473.22;4993640;28;20093;-73
2023/10/27 07:19:39;;;;;;;36.80;21.63;;;;;;;11.78;74.05;97471.41;4991602;28;20136;-75
2023/10/27 07:22:06;;;;;;;34.60;20.73;;;;;;;11.79;74.28;97473.09;4992810;28;20443;-69
2023/10/27 07:24:32;;;;;;;33.67;19.73;;;;;;;11.79;74.17;97473.09;4992729;28;20058;-73
2023/10/27 07:26:59;;;;;;;36.42;21.38;;;;;;;11.79;74.28;97475.72;4991395;28;20050;-72
2023/10/27 07:29:26;;;;;;;32.83;20.45;;;;;;;11.79;74.30;97474.88;4991780;28;20100;-73
2023/10/27 07:32:16;;;;;;;36.10;19.42;;;;;;;11.75;74.39;97479.63;4993486;28;20133;-79
2023/10/27 07:34:59;;;;;;;33.03;20.23;;;;;;;11.80;74.33;97479.16;4991980;28;20530;-81
2023/10/27 07:37:32;;;;;;;35.33;20.10;;;;;;;11.81;74.22;97472.94;4993909;28;20463;-72
2023/10/27 07:40:33;;;;;;;32.75;19.35;;;;;;;11.79;74.61;97474.88;4992718;28;20113;-75
2023/10/27 07:43:07;;;;;;;31.88;18.33;;;;;;;11.86;74.55;97487.28;4992600;28;20495;-71
2023/10/27 07:45:40;;;;;;;37.03;20.05;;;;;;;11.86;74.50;97482.03;4992534;28;20491;-76
2023/10/27 07:48:10;;;;;;;;;;;;;;;11.90;74.63;97482.56;4994398;28;20101;-81
2023/10/27 07:50:56;;;;;;;29.75;17.50;;;;;;;11.93;74.28;97474.31;4992720;28;19933;-83
2023/10/27 07:53:29;;;;;;;33.70;19.30;;;;;;;11.97;74.26;97482.78;4993781;28;20050;-74
2023/10/27 07:56:07;;;;;;;36.92;20.40;;;;;;;11.97;74.44;97480.13;4993034;28;20469;-78
2023/10/27 07:58:34;;;;;;;35.45;20.73;;;;;;;11.99;74.26;97483.44;4991954;28;20534;-79
2023/10/27 08:01:11;;;;;;;36.10;21.08;;;;;;;11.99;74.41;97486.91;4993929;28;20138;-82
2023/10/27 08:03:39;;;;;;;36.47;20.70;;;;;;;12.02;74.47;97483.13;4992661;28;20050;-71
2023/10/27 08:06:09;;;;;;;40.38;21.23;;;;;;;12.01;74.30;97483.28;4993188;28;20069;-77
2023/10/27 08:08:50;;;;;;;38.55;21.38;;;;;;;12.03;74.68;97483.97;4994108;28;20458;-70
2023/10/27 08:11:22;;;;;;;39.20;21.30;;;;;;;12.04;74.53;97480.34;4992359;28;20054;-76
2023/10/27 08:13:56;;;;;;;42.07;22.30;;;;;;;12.08;74.39;97487.00;4993676;28;20055;-73
2023/10/27 08:16:27;;;;;;;34.38;20.38;;;;;;;12.10;74.29;97485.03;4991654;28;20054;-75
2023/10/27 08:19:10;;;;;;;50.47;23.42;;;;;;;12.13;74.44;97482.09;4992020;28;20053;-76
2023/10/27 08:21:53;;;;;;;38.58;22.42;;;;;;;12.13;74.45;97479.47;4993540;28;20496;-73
2023/10/27 08:24:28;;;;;;;38.22;21.70;;;;;;;12.13;74.26;97482.09;4991885;28;20055;-84
2023/10/27 08:26:55;;;;;;;39.70;22.23;;;;;;;12.17;74.51;97485.25;4992303;28;20145;-74
2023/10/27 08:29:22;;;;;;;40.05;22.30;;;;;;;12.18;74.34;97485.09;4993124;28;20081;-76
2023/10/27 08:31:48;;;;;;;33.72;19.80;;;;;;;12.19;74.23;97483.28;4993382;28;20061;-78
2023/10/27 08:34:16;;;;;;;35.08;20.63;;;;;;;12.21;74.42;97491.88;4993660;28;20050;-72
2023/10/27 08:36:43;;;;;;;34.72;20.45;;;;;;;12.22;74.40;97480.31;4992998;28;20092;-77
2023/10/27 08:39:09;;;;;;;38.97;20.45;;;;;;;12.25;74.46;97493.22;4992835;28;20485;-76
2023/10/27 08:41:36;;;;;;;36.30;20.77;;;;;;;12.28;74.39;97495.56;4993103;28;20050;-74
2023/10/27 08:44:06;;;;;;;36.72;21.60;;;;;;;12.31;74.34;97491.78;4992988;28;20094;-77
2023/10/27 08:46:51;;;;;;;30.92;19.45;;;;;;;12.32;74.22;97491.63;4993158;28;20065;-77
2023/10/27 08:49:17;;;;;;;34.85;20.90;;;;;;;12.34;74.13;97494.13;4992654;28;20085;-75
2023/10/27 08:51:44;;;;;;;32.03;19.67;;;;;;;12.35;74.17;97493.97;4992968;28;20046;-76
2023/10/27 08:54:11;;;;;;;39.75;20.67;;;;;;;12.36;74.04;97498.25;4992886;28;20055;-74
2023/10/27 08:56:38;;;;;;;35.67;20.45;;;;;;;12.37;74.20;97499.91;4992916;28;20050;-73
2023/10/27 08:59:10;;;;;;;36.38;20.92;;;;;;;12.38;74.23;97496.25;4992799;28;20133;-75
2023/10/27 09:01:36;;;;;;;35.97;19.52;;;;;;;12.41;74.02;97496.97;4992742;28;20517;-71
2023/10/27 09:04:10;;;;;;;36.92;20.42;;;;;;;12.41;74.09;97495.13;4992700;28;20132;-75
2023/10/27 09:06:38;;;;;;;37.38;20.38;;;;;;;12.44;74.02;97494.81;4992613;28;20108;-73
2023/10/27 09:09:06;;;;;;;33.75;19.83;;;;;;;12.45;74.11;97499.09;4992909;28;20068;-80
2023/10/27 09:11:47;;;;;;;36.30;21.35;;;;;;;12.42;73.92;97493.31;4992727;28;20133;-78
2023/10/27 09:14:20;;;;;;;31.90;19.17;;;;;;;12.45;74.01;97493.03;4992535;28;20133;-76
2023/10/27 09:16:47;;;;;;;29.05;17.60;;;;;;;12.48;74.23;97492.69;4992323;28;20415;-76
2023/10/27 09:19:21;;;;;;;34.30;17.98;;;;;;;12.47;74.27;97494.53;4992121;28;20491;-79
2023/10/27 09:21:47;;;;;;;30.33;18.45;;;;;;;12.51;74.32;97497.66;4992401;28;20058;-77
2023/10/27 09:24:23;;;;;;;28.52;16.80;;;;;;;12.50;74.24;97496.00;4992628;28;20043;-76
2023/10/27 09:26:51;;;;;;;27.40;15.68;;;;;;;12.55;74.45;97501.66;4992318;28;20450;-76
2023/10/27 09:29:19;;;;;;;23.58;15.32;;;;;;;12.56;73.99;97500.66;4990882;28;20522;-77
2023/10/27 09:31:45;;;;;;;28.30;16.63;;;;;;;12.59;74.09;97500.34;4992666;28;20050;-74
2023/10/27 09:34:23;;;;;;;25.83;15.63;;;;;;;12.59;74.20;97500.34;4991223;28;20051;-74
2023/10/27 09:36:54;;;;;;;24.65;14.95;;;;;;;12.63;74.31;97496.41;4992305;28;20054;-76
2023/10/27 09:39:24;;;;;;;24.95;15.13;;;;;;;12.66;74.08;97503.19;4992454;28;20054;-76
2023/10/27 09:42:06;;;;;;;24.52;15.25;;;;;;;12.64;74.24;97502.53;4990446;28;20410;-78
2023/10/27 09:44:40;;;;;;;22.52;14.07;;;;;;;12.67;74.04;97499.56;4992375;28;20112;-82
2023/10/27 09:47:18;;;;;;;22.05;14.15;;;;;;;12.69;74.16;97502.88;4991950;28;20133;-74
2023/10/27 09:49:51;;;;;;;22.00;14.38;;;;;;;12.72;74.17;97499.09;4992099;28;20052;-74
2023/10/27 09:52:20;;;;;;;22.92;14.18;;;;;;;12.74;74.23;97507.69;4992057;28;20538;-75
2023/10/27 09:54:48;;;;;;;19.90;13.35;;;;;;;12.77;74.31;97508.22;4992298;28;20051;-79
2023/10/27 09:57:15;;;;;;;22.98;13.57;;;;;;;12.80;74.34;97507.06;4992176;28;20050;-75
2023/10/27 09:59:41;;;;;;;21.17;13.20;;;;;;;12.83;74.33;97501.47;4990423;28;20573;-78
2023/10/27 10:02:10;;;;;;;21.15;13.40;;;;;;;12.86;74.15;97506.41;4992022;28;20046;-77
2023/10/27 10:04:51;;;;;;;19.63;12.95;;;;;;;12.84;74.16;97497.00;4991921;28;20415;-75
2023/10/27 10:07:52;;;;;;;21.33;12.93;;;;;;;12.87;73.98;97510.72;4991739;28;20507;-73
2023/10/27 10:10:26;;;;;;;20.98;12.20;;;;;;;12.95;74.14;97509.09;4990567;28;20491;-80
2023/10/27 10:13:12;;;;;;;17.27;11.35;;;;;;;12.93;74.19;97511.09;4991681;28;20062;-77
2023/10/27 10:15:40;;;;;;;19.55;11.30;;;;;;;12.98;74.00;97508.78;4992077;28;20509;-79
2023/10/27 10:18:28;;;;;;;17.35;11.30;;;;;;;12.98;74.09;97511.44;4992143;28;20062;-75
2023/10/27 10:20:56;;;;;;;13.82;9.98;;;;;;;13.00;73.82;97506.81;4991588;28;20129;-76
2023/10/27 10:23:46;;;;;;;14.98;9.73;;;;;;;13.02;74.13;97512.78;4991999;28;20050;-79
2023/10/27 10:26:12;;;;;;;15.05;9.43;;;;;;;13.05;74.27;97507.19;4982034;28;20054;-75
2023/10/27 10:28:41;;;;;;;15.02;10.02;;;;;;;13.08;74.30;97513.97;4991690;28;20443;-80
2023/10/27 10:31:08;;;;;;;14.13;9.65;;;;;;;13.11;74.46;97505.69;4991715;28;20403;-76
2023/10/27 10:33:36;;;;;;;14.73;8.93;;;;;;;13.14;74.55;97505.38;4991456;28;20092;-76
2023/10/27 10:36:15;;;;;;;13.70;8.68;;;;;;;13.15;74.50;97507.88;4991738;28;20562;-76
2023/10/27 10:38:55;;;;;;;14.05;9.23;;;;;;;13.22;74.68;97504.56;4990552;28;20051;-78
2023/10/27 10:41:43;;;;;;;12.40;8.60;;;;;;;13.27;74.62;97503.09;4991762;28;20050;-79
2023/10/27 10:44:11;;;;;;;13.23;8.93;;;;;;;13.31;74.54;97498.34;4991596;28;20133;-75
2023/10/27 10:46:38;;;;;;;12.95;8.43;;;;;;;13.35;74.30;97497.00;4991295;28;20071;-78
2023/10/27 10:49:05;;;;;;;11.55;8.63;;;;;;;13.38;74.30;97499.34;4991553;28;20050;-77
2023/10/27 10:51:36;;;;;;;12.45;8.60;;;;;;;13.40;74.30;97497.38;4990463;28;20537;-74
2023/10/27 10:54:10;;;;;;;16.45;9.45;;;;;;;13.43;74.20;97494.38;4993333;28;20058;-73
2023/10/27 10:56:37;;;;;;;13.02;9.07;;;;;;;13.49;74.19;97497.44;4995282;28;20050;-83
2023/10/27 10:59:04;;;;;;;12.93;9.02;;;;;;;13.53;74.44;97501.41;4994759;28;20414;-73
2023/10/27 11:01:30;;;;;;;13.48;9.65;;;;;;;13.56;74.24;97498.41;4995226;28;20129;-75
2023/10/27 11:03:57;;;;;;;13.25;8.85;;;;;;;13.58;74.21;97496.44;4995012;28;20058;-77
2023/10/27 11:06:26;;;;;;;12.60;8.77;;;;;;;13.60;74.23;97491.81;4994821;28;20137;-78
2023/10/27 11:08:53;;;;;;;12.13;8.98;;;;;;;13.63;74.24;97496.78;4993486;28;20646;-76
2023/10/27 11:11:20;;;;;;;13.15;8.50;;;;;;;13.65;74.34;97497.44;4994603;28;20149;-75
2023/10/27 11:13:57;;;;;;;12.90;8.45;;;;;;;13.68;74.44;97497.13;4995141;28;20089;-76
2023/10/27 11:16:24;;;;;;;14.07;9.25;;;;;;;13.73;74.12;97501.09;4994774;28;20100;-77
2023/10/27 11:18:59;;;;;;;10.63;8.07;;;;;;;13.74;73.93;97497.44;4994365;28;20467;-76
2023/10/27 11:21:27;;;;;;;9.85;7.38;;;;;;;13.78;73.89;97498.78;4994644;28;20058;-74
2023/10/27 11:23:54;;;;;;;10.77;7.43;;;;;;;13.79;73.49;97497.78;4994521;28;20150;-73
2023/10/27 11:26:24;;;;;;;10.07;7.10;;;;;;;13.79;73.60;97493.31;4994454;28;20054;-79
2023/10/27 11:28:55;;;;;;;10.73;7.47;;;;;;;13.81;73.71;97490.53;4993886;28;20054;-75